createdAt,value
2022-11-15T00:02:22.287Z,6.66
2022-11-15T00:07:48.300Z,6.68
2022-11-15T00:12:20.688Z,6.71
2022-11-15T00:17:20.803Z,6.75
2022-11-15T00:22:21.650Z,6.80
2022-11-15T00:27:20.723Z,6.85
2022-11-15T00:32:20.756Z,6.88
2022-11-15T00:37:20.733Z,6.91
2022-11-15T00:42:20.798Z,6.93
2022-11-15T00:47:20.781Z,6.97
2022-11-15T00:52:20.798Z,7.03
2022-11-15T00:57:21.338Z,7.09
2022-11-15T01:02:21.285Z,7.14
2022-11-15T01:07:20.876Z,7.19
2022-11-15T01:12:20.840Z,7.23
2022-11-15T01:17:20.978Z,7.27
2022-11-15T01:22:21.023Z,7.31
2022-11-15T01:27:20.911Z,7.37
2022-11-15T01:32:20.987Z,7.42
2022-11-15T01:37:20.910Z,7.53
2022-11-15T01:42:20.924Z,7.62
2022-11-15T01:47:26.199Z,7.72
2022-11-15T01:52:23.945Z,7.80
2022-11-15T01:57:21.063Z,7.87
2022-11-15T02:02:21.549Z,7.94
2022-11-15T02:07:22.431Z,8.01
2022-11-15T02:12:21.978Z,8.08
2022-11-15T02:17:40.883Z,8.14
2022-11-15T02:22:33.705Z,8.20
2022-11-15T02:27:40.898Z,8.24
2022-11-15T02:32:30.620Z,8.29
2022-11-15T02:37:38.414Z,8.36
2022-11-15T02:42:33.444Z,8.43
2022-11-15T02:47:23.235Z,8.50
2022-11-15T02:52:23.525Z,8.59
2022-11-15T02:57:35.381Z,8.68
2022-11-15T03:02:41.018Z,8.80
2022-11-15T03:07:29.592Z,8.87
2022-11-15T03:12:32.388Z,8.95
2022-11-15T03:17:27.449Z,9.02
2022-11-15T03:22:25.875Z,9.10
2022-11-15T03:27:24.503Z,9.16
2022-11-15T03:32:26.170Z,9.20
2022-11-15T03:37:27.668Z,9.27
2022-11-15T03:42:36.743Z,9.34
2022-11-15T03:47:28.977Z,9.37
2022-11-15T03:52:22.154Z,9.34
2022-11-15T03:57:22.213Z,9.33
2022-11-15T04:02:21.774Z,9.41
2022-11-15T04:07:21.453Z,9.45
2022-11-15T04:12:21.268Z,9.51
2022-11-15T04:17:21.277Z,9.53
2022-11-15T04:22:21.263Z,9.56
2022-11-15T04:27:21.266Z,9.63
2022-11-15T04:32:21.328Z,9.65
2022-11-15T04:37:21.292Z,9.67
2022-11-15T04:42:21.300Z,9.71
2022-11-15T04:47:21.422Z,9.74
2022-11-15T04:52:21.337Z,9.75
2022-11-15T04:57:21.362Z,9.80
2022-11-15T05:02:21.884Z,9.83
2022-11-15T05:07:21.460Z,9.88
2022-11-15T05:12:21.363Z,9.91
2022-11-15T05:17:21.386Z,9.95
2022-11-15T05:22:21.747Z,9.97
2022-11-15T05:27:21.407Z,10.01
2022-11-15T05:32:21.459Z,10.01
2022-11-15T05:37:21.476Z,10.02
2022-11-15T05:42:21.706Z,9.99
2022-11-15T05:47:24.947Z,10.03
2022-11-15T05:52:28.146Z,10.02
2022-11-15T05:57:21.494Z,10.06
2022-11-15T06:02:23.066Z,10.05
2022-11-15T06:07:21.961Z,10.06
2022-11-15T06:12:21.623Z,10.07
2022-11-15T06:17:21.529Z,10.12
2022-11-15T06:22:21.536Z,10.16
2022-11-15T06:27:21.533Z,10.18
2022-11-15T06:32:21.553Z,10.16
2022-11-15T06:37:21.629Z,10.15
2022-11-15T06:42:21.568Z,10.15
2022-11-15T06:47:21.616Z,10.16
2022-11-15T06:52:21.663Z,10.19
2022-11-15T06:57:21.676Z,10.19
2022-11-15T07:02:22.150Z,10.20
2022-11-15T07:07:21.827Z,10.21
2022-11-15T07:12:21.686Z,10.22
2022-11-15T07:17:21.709Z,10.22
2022-11-15T07:22:21.685Z,10.24
2022-11-15T07:27:21.736Z,10.23
2022-11-15T07:32:21.695Z,10.21
2022-11-15T07:37:21.783Z,10.21
2022-11-15T07:42:21.709Z,10.22
2022-11-15T07:47:21.745Z,10.24
2022-11-15T07:52:21.770Z,10.26
2022-11-15T07:57:21.737Z,10.27
2022-11-15T08:02:27.647Z,10.27
2022-11-15T08:07:21.848Z,10.24
2022-11-15T08:12:22.415Z,10.24
2022-11-15T08:17:23.344Z,10.29
2022-11-15T08:22:21.803Z,10.35
2022-11-15T08:27:21.845Z,10.37
2022-11-15T08:32:21.841Z,10.38
2022-11-15T08:37:21.858Z,10.41
2022-11-15T08:42:21.837Z,10.44
2022-11-15T08:47:21.939Z,10.54
2022-11-15T08:52:22.039Z,10.70
2022-11-15T08:57:21.921Z,10.85
2022-11-15T09:02:23.687Z,10.89
2022-11-15T09:07:22.006Z,11.01
2022-11-15T09:12:21.927Z,11.52
2022-11-15T09:17:24.691Z,11.90
2022-11-15T09:22:21.943Z,12.65
2022-11-15T09:27:22.015Z,12.70
2022-11-15T09:32:22.921Z,13.57
2022-11-15T09:37:22.033Z,13.92
2022-11-15T09:42:26.121Z,14.40
2022-11-15T09:47:38.448Z,14.60
2022-11-15T09:52:22.070Z,14.64
2022-11-15T09:57:22.008Z,14.15
2022-11-15T10:02:41.953Z,13.66
2022-11-15T10:07:33.315Z,12.98
2022-11-15T10:12:22.727Z,12.90
2022-11-15T10:17:35.249Z,12.51
2022-11-15T10:22:39.381Z,12.51
2022-11-15T10:27:23.418Z,12.54
2022-11-15T10:32:22.181Z,12.44
2022-11-15T10:37:31.074Z,12.55
2022-11-15T10:42:29.127Z,12.76
2022-11-15T10:47:25.396Z,13.17
2022-11-15T10:52:22.541Z,13.85
2022-11-15T10:57:25.168Z,14.09
2022-11-15T11:02:31.323Z,13.97
2022-11-15T11:07:25.275Z,13.89
2022-11-15T11:12:28.411Z,14.32
2022-11-15T11:17:39.648Z,13.96
2022-11-15T11:22:42.105Z,14.18
2022-11-15T11:27:35.864Z,14.14
2022-11-15T11:32:32.184Z,13.73
2022-11-15T11:37:37.451Z,13.75
2022-11-15T11:42:37.456Z,13.87
2022-11-15T11:47:28.689Z,13.68
2022-11-15T11:52:28.228Z,13.62
2022-11-15T11:57:33.003Z,13.53
2022-11-15T12:02:31.619Z,13.48
2022-11-15T12:07:29.462Z,13.43
2022-11-15T12:12:38.084Z,13.42
2022-11-15T12:17:26.238Z,13.40
2022-11-15T12:22:34.259Z,13.49
2022-11-15T12:27:37.282Z,13.49
2022-11-15T12:32:33.411Z,13.48
2022-11-15T12:37:39.769Z,13.48
2022-11-15T12:42:22.379Z,13.48
2022-11-15T12:47:25.502Z,13.33
2022-11-15T12:52:22.442Z,13.28
2022-11-15T12:57:30.641Z,13.33
2022-11-15T13:02:29.124Z,13.21
2022-11-15T13:07:35.755Z,13.09
2022-11-15T13:12:22.448Z,12.92
2022-11-15T13:17:26.388Z,12.78
2022-11-15T13:22:22.571Z,12.67
2022-11-15T13:27:22.712Z,12.57
2022-11-15T13:32:22.795Z,12.51
2022-11-15T13:37:22.532Z,12.41
2022-11-15T13:42:22.546Z,12.30
2022-11-15T13:47:26.024Z,12.26
2022-11-15T13:52:27.730Z,12.17
2022-11-15T13:57:26.007Z,12.10
2022-11-15T14:02:29.070Z,12.06
2022-11-15T14:07:25.833Z,11.97
2022-11-15T14:12:33.757Z,11.94
2022-11-15T14:17:29.924Z,11.93
2022-11-15T14:22:24.997Z,11.93
2022-11-15T14:27:25.645Z,11.92
2022-11-15T14:32:25.296Z,11.89
2022-11-15T14:37:26.050Z,11.83
2022-11-15T14:42:23.416Z,11.79
2022-11-15T14:47:22.672Z,11.77
2022-11-15T14:52:31.606Z,11.74
2022-11-15T14:57:22.695Z,11.71
2022-11-15T15:02:25.785Z,11.67
2022-11-15T15:07:22.896Z,11.66
2022-11-15T15:12:23.407Z,11.64
2022-11-15T15:17:22.757Z,11.62
2022-11-15T15:22:27.017Z,11.57
2022-11-15T15:27:22.761Z,11.55
2022-11-15T15:32:22.778Z,11.53
2022-11-15T15:37:24.911Z,11.49
2022-11-15T15:42:23.384Z,11.48
2022-11-15T15:47:23.345Z,11.46
2022-11-15T15:52:22.830Z,11.44
2022-11-15T15:57:22.859Z,11.40
2022-11-15T16:02:23.413Z,11.41
2022-11-15T16:07:23.113Z,11.41
2022-11-15T16:12:22.862Z,11.39
2022-11-15T16:17:32.905Z,11.37
2022-11-15T16:22:23.076Z,11.36
2022-11-15T16:27:23.501Z,11.34
2022-11-15T16:32:22.970Z,11.36
2022-11-15T16:37:23.412Z,11.37
2022-11-15T16:42:22.936Z,11.38
2022-11-15T16:47:22.949Z,11.36
2022-11-15T16:52:22.940Z,11.28
2022-11-15T16:57:23.002Z,11.16
2022-11-15T17:02:24.447Z,11.10
2022-11-15T17:07:23.039Z,11.03
2022-11-15T17:12:23.007Z,10.94
2022-11-15T17:17:23.031Z,10.87
2022-11-15T17:22:23.892Z,10.85
2022-11-15T17:27:23.047Z,10.83
2022-11-15T17:32:23.061Z,10.81
2022-11-15T17:37:23.057Z,10.79
2022-11-15T17:42:23.091Z,10.78
2022-11-15T17:47:23.122Z,10.76
2022-11-15T17:52:23.112Z,10.74
2022-11-15T17:57:23.093Z,10.72
2022-11-15T18:02:23.636Z,10.68
2022-11-15T18:07:23.203Z,10.65
2022-11-15T18:12:23.127Z,10.62
2022-11-15T18:17:23.165Z,10.62
2022-11-15T18:22:23.182Z,10.58
2022-11-15T18:27:23.201Z,10.55
2022-11-15T18:32:23.180Z,10.55
2022-11-15T18:37:23.220Z,10.55
2022-11-15T18:42:23.230Z,10.54
2022-11-15T18:47:23.245Z,10.54
2022-11-15T18:52:23.225Z,10.54
2022-11-15T18:57:23.216Z,10.57
2022-11-15T19:02:23.747Z,10.58
2022-11-15T19:07:23.373Z,10.59
2022-11-15T19:12:23.259Z,10.62
2022-11-15T19:17:23.321Z,10.65
2022-11-15T19:22:23.317Z,10.70
2022-11-15T19:27:23.283Z,10.74
2022-11-15T19:32:23.347Z,10.75
2022-11-15T19:37:23.314Z,10.79
2022-11-15T19:42:23.328Z,10.79
2022-11-15T19:47:23.334Z,10.79
2022-11-15T19:52:23.391Z,10.79
2022-11-15T19:57:23.365Z,10.80
2022-11-15T20:02:23.795Z,10.82
2022-11-15T20:07:23.506Z,10.82
2022-11-15T20:12:23.405Z,10.83
2022-11-15T20:17:23.458Z,10.83
2022-11-15T20:22:24.365Z,10.83
2022-11-15T20:27:23.433Z,10.85
2022-11-15T20:32:23.450Z,10.87
2022-11-15T20:37:23.469Z,10.90
2022-11-15T20:42:23.614Z,10.91
2022-11-15T20:47:29.000Z,10.90
2022-11-15T20:52:23.926Z,10.91
2022-11-15T20:57:23.505Z,10.91
2022-11-15T21:02:25.252Z,10.91
2022-11-15T21:07:23.907Z,10.90
2022-11-15T21:12:23.550Z,10.91
2022-11-15T21:17:23.565Z,10.94
2022-11-15T21:22:23.584Z,10.94
2022-11-15T21:27:23.889Z,10.94
2022-11-15T21:32:23.604Z,10.95
2022-11-15T21:37:23.586Z,10.96
2022-11-15T21:42:23.601Z,10.96
2022-11-15T21:47:23.634Z,10.97
2022-11-15T21:52:23.662Z,10.96
2022-11-15T21:57:23.663Z,10.98
2022-11-15T22:02:24.482Z,10.97
2022-11-15T22:07:23.736Z,10.98
2022-11-15T22:12:28.481Z,10.99
2022-11-15T22:17:23.888Z,10.98
2022-11-15T22:22:23.717Z,10.98
2022-11-15T22:27:23.708Z,10.97
2022-11-15T22:32:23.739Z,10.97
2022-11-15T22:37:23.773Z,10.97
2022-11-15T22:42:24.240Z,10.97
2022-11-15T22:47:24.422Z,10.99
2022-11-15T22:52:23.840Z,11.01
2022-11-15T22:57:23.858Z,11.01
2022-11-15T23:02:26.069Z,11.01
2022-11-15T23:07:23.965Z,11.01
2022-11-15T23:12:23.831Z,11.00
2022-11-15T23:17:23.848Z,11.00
2022-11-15T23:22:23.847Z,11.00
2022-11-15T23:27:23.962Z,11.00
2022-11-15T23:32:24.015Z,11.00
2022-11-15T23:37:23.856Z,11.01
2022-11-15T23:42:23.905Z,11.02
2022-11-15T23:47:23.942Z,11.03
2022-11-15T23:52:23.936Z,11.05
2022-11-15T23:57:23.946Z,11.04
